Nearby METAR Reports

 

KHOT - Hot Springs, Arkansas, USA
Distance from station: W 8mi, 14km
Updated: 10/23/2018 1:53pm
Clear
Clear
 Wind from ESE
Wind: ESE 6 mph , 9 km/h
Temperature: 68°F , 20°C
Dew Point: 46°F , 8°C
Humidity: 46%
Barometer: 30.23 inHg , 1023.7 hPa
Clouds: Clear
Visibility: 10 miles , 16 km
2018/10/23 18:53 KHOT 231853Z AUTO 11005KT 10SM CLR 20/08 A3023 RMK AO2 SLP236 T02000078
KMWT - Mount Ida, Arkansas, USA
Distance from station: W 36mi, 58km
Updated: 10/23/2018 1:53pm
Clear
Clear
 Wind from varies
Wind: varies 7 mph , 11 km/h
Temperature: 66°F , 19°C
Dew Point: 45°F , 7°C
Humidity: 46%
Barometer: 30.22 inHg , 1023.4 hPa
Clouds: Clear
2018/10/23 18:53 KMWT 231853Z AUTO VRB06KT CLR 19/07 A3022 RMK AO2 SLP232 T01940067
 
KLIT - Little Rock, Arkansas, USA
Distance from station: ENE 45mi, 73km
Updated: 10/23/2018 2:53pm
Mostly cloudy
Mostly cloudy
 Wind from E
Wind: E 6 mph , 9 km/h
Temperature: 68°F , 20°C
Dew Point: 45°F , 7°C
Humidity: 43%
Barometer: 30.23 inHg , 1023.7 hPa
Clouds: Mostly cloudy
Visibility: 10 miles , 16 km
Cloud details: Mostly cloudy 25000 ft
2018/10/23 19:53 KLIT 231953Z 10005KT 10SM BKN250 20/07 A3023 RMK AO2 SLP237 T02000072
KLRF - Little Rock Afb, Arkansas, USA
Distance from station: NE 56mi, 89km
Updated: 10/23/2018 1:56pm
Clear
Clear
 Wind from NE
Wind: NE 7 mph , 11 km/h
Temperature: 68°F , 20°C
Dew Point: 45°F , 7°C
Humidity: 43%
Barometer: 30.23 inHg , 1023.7 hPa
Clouds: Clear
Visibility: 10 miles , 16 km
2018/10/23 18:56 KLRF 231856Z AUTO 04006KT 10SM CLR 20/07 A3023 RMK AO2 SLP239 T02040070 $